sensor_id;sensor_type;location;lat;lon;timestamp;temperature;humidity
56240;DHT22;42154;51.992;5.896;2023-05-19T00:01:14;10.20;99.90
56240;DHT22;42154;51.992;5.896;2023-05-19T00:03:52;10.10;99.90
56240;DHT22;42154;51.992;5.896;2023-05-19T00:06:22;10.10;99.90
56240;DHT22;42154;51.992;5.896;2023-05-19T00:08:49;10.00;99.90
56240;DHT22;42154;51.992;5.896;2023-05-19T00:11:19;10.00;99.90
56240;DHT22;42154;51.992;5.896;2023-05-19T00:13:47;10.00;99.90
56240;DHT22;42154;51.992;5.896;2023-05-19T00:16:14;10.00;99.90
56240;DHT22;42154;51.992;5.896;2023-05-19T00:18:40;9.90;99.90
56240;DHT22;42154;51.992;5.896;2023-05-19T00:21:06;9.90;99.90
56240;DHT22;42154;51.992;5.896;2023-05-19T00:23:32;9.90;99.90
56240;DHT22;42154;51.992;5.896;2023-05-19T00:25:58;9.80;99.90
56240;DHT22;42154;51.992;5.896;2023-05-19T00:28:23;9.80;99.90
56240;DHT22;42154;51.992;5.896;2023-05-19T00:30:50;9.80;99.90
56240;DHT22;42154;51.992;5.896;2023-05-19T00:33:16;9.80;99.90
56240;DHT22;42154;51.992;5.896;2023-05-19T00:35:42;9.70;99.90
56240;DHT22;42154;51.992;5.896;2023-05-19T00:38:07;9.70;99.90
56240;DHT22;42154;51.992;5.896;2023-05-19T00:40:34;9.60;99.90
56240;DHT22;42154;51.992;5.896;2023-05-19T00:43:03;9.60;99.90
56240;DHT22;42154;51.992;5.896;2023-05-19T00:45:33;9.60;99.90
56240;DHT22;42154;51.992;5.896;2023-05-19T00:47:59;9.60;99.90
56240;DHT22;42154;51.992;5.896;2023-05-19T00:50:25;9.60;99.90
56240;DHT22;42154;51.992;5.896;2023-05-19T00:52:53;9.50;99.90
56240;DHT22;42154;51.992;5.896;2023-05-19T00:55:22;9.50;99.90
56240;DHT22;42154;51.992;5.896;2023-05-19T00:57:52;9.50;99.90
56240;DHT22;42154;51.992;5.896;2023-05-19T01:00:18;9.40;99.90
56240;DHT22;42154;51.992;5.896;2023-05-19T01:02:45;9.40;99.90
56240;DHT22;42154;51.992;5.896;2023-05-19T01:05:12;9.40;99.90
56240;DHT22;42154;51.992;5.896;2023-05-19T01:07:39;9.40;99.90
56240;DHT22;42154;51.992;5.896;2023-05-19T01:10:06;9.40;99.90
56240;DHT22;42154;51.992;5.896;2023-05-19T01:12:33;9.30;99.90
56240;DHT22;42154;51.992;5.896;2023-05-19T01:15:02;9.30;99.90
56240;DHT22;42154;51.992;5.896;2023-05-19T01:17:47;9.30;99.90
56240;DHT22;42154;51.992;5.896;2023-05-19T01:20:28;9.30;99.90
56240;DHT22;42154;51.992;5.896;2023-05-19T01:23:30;9.30;99.90
56240;DHT22;42154;51.992;5.896;2023-05-19T01:29:48;9.20;99.90
56240;DHT22;42154;51.992;5.896;2023-05-19T01:31:54;9.20;99.90
56240;DHT22;42154;51.992;5.896;2023-05-19T01:34:24;9.20;99.90
56240;DHT22;42154;51.992;5.896;2023-05-19T01:36:53;9.20;99.90
56240;DHT22;42154;51.992;5.896;2023-05-19T01:39:19;9.20;99.90
56240;DHT22;42154;51.992;5.896;2023-05-19T01:41:44;9.10;99.90
56240;DHT22;42154;51.992;5.896;2023-05-19T01:44:11;9.10;99.90
56240;DHT22;42154;51.992;5.896;2023-05-19T01:46:37;9.10;99.90
56240;DHT22;42154;51.992;5.896;2023-05-19T01:49:05;9.10;99.90
56240;DHT22;42154;51.992;5.896;2023-05-19T01:51:31;9.10;99.90
56240;DHT22;42154;51.992;5.896;2023-05-19T01:53:56;9.00;99.90
56240;DHT22;42154;51.992;5.896;2023-05-19T01:56:42;9.00;99.90
56240;DHT22;42154;51.992;5.896;2023-05-19T02:02:05;9.00;99.90
56240;DHT22;42154;51.992;5.896;2023-05-19T02:04:54;8.90;99.90
56240;DHT22;42154;51.992;5.896;2023-05-19T02:07:25;8.80;99.90
56240;DHT22;42154;51.992;5.896;2023-05-19T02:12:37;8.80;99.90
56240;DHT22;42154;51.992;5.896;2023-05-19T02:15:21;8.80;99.90
56240;DHT22;42154;51.992;5.896;2023-05-19T02:17:49;8.70;99.90
56240;DHT22;42154;51.992;5.896;2023-05-19T02:20:19;8.70;99.90
56240;DHT22;42154;51.992;5.896;2023-05-19T02:22:47;8.70;99.90
56240;DHT22;42154;51.992;5.896;2023-05-19T02:25:13;8.60;99.90
56240;DHT22;42154;51.992;5.896;2023-05-19T02:27:40;8.70;99.90
56240;DHT22;42154;51.992;5.896;2023-05-19T02:30:06;8.60;99.90
56240;DHT22;42154;51.992;5.896;2023-05-19T02:32:33;8.60;99.90
56240;DHT22;42154;51.992;5.896;2023-05-19T02:34:58;8.60;99.90
56240;DHT22;42154;51.992;5.896;2023-05-19T02:37:25;8.60;99.90
56240;DHT22;42154;51.992;5.896;2023-05-19T02:39:53;8.60;99.90
56240;DHT22;42154;51.992;5.896;2023-05-19T02:42:19;8.50;99.90
56240;DHT22;42154;51.992;5.896;2023-05-19T02:44:47;8.50;99.90
56240;DHT22;42154;51.992;5.896;2023-05-19T02:47:13;8.50;99.90
56240;DHT22;42154;51.992;5.896;2023-05-19T02:49:39;8.50;99.90
56240;DHT22;42154;51.992;5.896;2023-05-19T02:52:05;8.50;99.90
56240;DHT22;42154;51.992;5.896;2023-05-19T02:54:32;8.50;99.90
56240;DHT22;42154;51.992;5.896;2023-05-19T02:56:59;8.50;99.90
56240;DHT22;42154;51.992;5.896;2023-05-19T02:59:25;8.50;99.90
56240;DHT22;42154;51.992;5.896;2023-05-19T03:01:54;8.40;99.90
56240;DHT22;42154;51.992;5.896;2023-05-19T03:04:21;8.40;99.90
56240;DHT22;42154;51.992;5.896;2023-05-19T03:06:46;8.30;99.90
56240;DHT22;42154;51.992;5.896;2023-05-19T03:09:13;8.30;99.90
56240;DHT22;42154;51.992;5.896;2023-05-19T03:11:39;8.30;99.90
56240;DHT22;42154;51.992;5.896;2023-05-19T03:14:05;8.30;99.90
56240;DHT22;42154;51.992;5.896;2023-05-19T03:16:31;8.30;99.90
56240;DHT22;42154;51.992;5.896;2023-05-19T03:18:57;8.30;99.90
56240;DHT22;42154;51.992;5.896;2023-05-19T03:21:22;8.30;99.90
56240;DHT22;42154;51.992;5.896;2023-05-19T03:23:48;8.20;99.90
56240;DHT22;42154;51.992;5.896;2023-05-19T03:26:14;8.20;99.90
56240;DHT22;42154;51.992;5.896;2023-05-19T03:28:40;8.20;99.90
56240;DHT22;42154;51.992;5.896;2023-05-19T03:31:06;8.20;99.90
56240;DHT22;42154;51.992;5.896;2023-05-19T03:33:36;8.20;99.90
56240;DHT22;42154;51.992;5.896;2023-05-19T03:36:02;8.20;99.90
56240;DHT22;42154;51.992;5.896;2023-05-19T03:38:32;8.10;99.90
56240;DHT22;42154;51.992;5.896;2023-05-19T03:40:59;8.10;99.90
56240;DHT22;42154;51.992;5.896;2023-05-19T03:43:24;8.10;99.90
56240;DHT22;42154;51.992;5.896;2023-05-19T03:45:55;8.10;99.90
56240;DHT22;42154;51.992;5.896;2023-05-19T03:48:56;8.10;99.90
56240;DHT22;42154;51.992;5.896;2023-05-19T03:51:40;8.10;99.90
56240;DHT22;42154;51.992;5.896;2023-05-19T03:54:20;8.20;99.90
56240;DHT22;42154;51.992;5.896;2023-05-19T03:56:47;8.20;99.90
56240;DHT22;42154;51.992;5.896;2023-05-19T03:59:12;8.20;99.90
56240;DHT22;42154;51.992;5.896;2023-05-19T04:01:38;8.30;99.90
56240;DHT22;42154;51.992;5.896;2023-05-19T04:04:04;8.40;99.90
56240;DHT22;42154;51.992;5.896;2023-05-19T04:06:30;8.80;99.90
56240;DHT22;42154;51.992;5.896;2023-05-19T04:08:55;9.30;99.90
56240;DHT22;42154;51.992;5.896;2023-05-19T04:11:21;9.70;99.90
56240;DHT22;42154;51.992;5.896;2023-05-19T04:13:47;10.20;99.90
56240;DHT22;42154;51.992;5.896;2023-05-19T04:16:13;10.60;99.90
56240;DHT22;42154;51.992;5.896;2023-05-19T04:18:40;10.90;99.90
56240;DHT22;42154;51.992;5.896;2023-05-19T04:21:06;10.90;99.90
56240;DHT22;42154;51.992;5.896;2023-05-19T04:23:33;10.90;99.90
56240;DHT22;42154;51.992;5.896;2023-05-19T04:25:59;11.10;99.90
56240;DHT22;42154;51.992;5.896;2023-05-19T04:28:26;11.70;99.90
56240;DHT22;42154;51.992;5.896;2023-05-19T04:30:52;12.20;99.90
56240;DHT22;42154;51.992;5.896;2023-05-19T04:33:17;12.70;99.90
56240;DHT22;42154;51.992;5.896;2023-05-19T04:35:44;13.10;99.90
56240;DHT22;42154;51.992;5.896;2023-05-19T04:38:11;13.30;99.90
56240;DHT22;42154;51.992;5.896;2023-05-19T04:40:37;13.50;99.90
56240;DHT22;42154;51.992;5.896;2023-05-19T04:43:05;13.70;99.90
56240;DHT22;42154;51.992;5.896;2023-05-19T04:45:32;13.90;99.90
56240;DHT22;42154;51.992;5.896;2023-05-19T04:47:59;14.00;99.90
56240;DHT22;42154;51.992;5.896;2023-05-19T04:50:26;13.70;99.90
56240;DHT22;42154;51.992;5.896;2023-05-19T04:52:54;13.40;99.90
56240;DHT22;42154;51.992;5.896;2023-05-19T04:55:20;12.80;99.90
56240;DHT22;42154;51.992;5.896;2023-05-19T04:57:48;12.30;99.90
56240;DHT22;42154;51.992;5.896;2023-05-19T05:00:14;12.00;99.90
56240;DHT22;42154;51.992;5.896;2023-05-19T05:02:58;11.60;99.90
56240;DHT22;42154;51.992;5.896;2023-05-19T05:05:26;11.30;99.90
56240;DHT22;42154;51.992;5.896;2023-05-19T05:07:52;11.10;99.90
56240;DHT22;42154;51.992;5.896;2023-05-19T05:10:19;10.90;99.90
56240;DHT22;42154;51.992;5.896;2023-05-19T05:12:45;10.90;99.90
56240;DHT22;42154;51.992;5.896;2023-05-19T05:15:11;10.90;99.90
56240;DHT22;42154;51.992;5.896;2023-05-19T05:17:37;11.00;99.90
56240;DHT22;42154;51.992;5.896;2023-05-19T05:20:04;11.00;99.90
56240;DHT22;42154;51.992;5.896;2023-05-19T05:22:31;10.90;99.90
56240;DHT22;42154;51.992;5.896;2023-05-19T05:24:57;10.80;99.90
56240;DHT22;42154;51.992;5.896;2023-05-19T05:27:23;10.80;99.90
56240;DHT22;42154;51.992;5.896;2023-05-19T05:29:49;10.90;99.90
56240;DHT22;42154;51.992;5.896;2023-05-19T05:32:14;10.90;99.90
56240;DHT22;42154;51.992;5.896;2023-05-19T05:34:42;10.90;99.90
56240;DHT22;42154;51.992;5.896;2023-05-19T05:37:08;10.80;99.90
56240;DHT22;42154;51.992;5.896;2023-05-19T05:39:35;10.90;99.90
56240;DHT22;42154;51.992;5.896;2023-05-19T05:42:01;11.00;99.90
56240;DHT22;42154;51.992;5.896;2023-05-19T05:44:27;11.00;99.90
56240;DHT22;42154;51.992;5.896;2023-05-19T05:46:54;11.00;99.90
56240;DHT22;42154;51.992;5.896;2023-05-19T05:49:20;11.00;99.90
56240;DHT22;42154;51.992;5.896;2023-05-19T05:51:47;11.10;99.90
56240;DHT22;42154;51.992;5.896;2023-05-19T05:54:16;11.20;99.90
56240;DHT22;42154;51.992;5.896;2023-05-19T05:56:44;11.30;99.90
56240;DHT22;42154;51.992;5.896;2023-05-19T05:59:11;11.40;99.90
56240;DHT22;42154;51.992;5.896;2023-05-19T06:01:37;11.50;99.90
56240;DHT22;42154;51.992;5.896;2023-05-19T06:04:06;11.60;99.90
56240;DHT22;42154;51.992;5.896;2023-05-19T06:06:32;11.70;99.90
56240;DHT22;42154;51.992;5.896;2023-05-19T06:09:00;11.80;99.90
56240;DHT22;42154;51.992;5.896;2023-05-19T06:11:27;11.80;99.90
56240;DHT22;42154;51.992;5.896;2023-05-19T06:13:55;11.90;99.90
56240;DHT22;42154;51.992;5.896;2023-05-19T06:16:39;12.00;99.90
56240;DHT22;42154;51.992;5.896;2023-05-19T06:19:05;12.10;99.90
56240;DHT22;42154;51.992;5.896;2023-05-19T06:21:31;12.20;99.90
56240;DHT22;42154;51.992;5.896;2023-05-19T06:23:58;12.30;99.90
56240;DHT22;42154;51.992;5.896;2023-05-19T06:26:24;12.40;99.90
56240;DHT22;42154;51.992;5.896;2023-05-19T06:28:51;12.50;99.90
56240;DHT22;42154;51.992;5.896;2023-05-19T06:31:16;12.60;99.90
56240;DHT22;42154;51.992;5.896;2023-05-19T06:33:52;12.70;99.90
56240;DHT22;42154;51.992;5.896;2023-05-19T06:36:18;12.80;99.90
56240;DHT22;42154;51.992;5.896;2023-05-19T06:38:45;12.90;99.90
56240;DHT22;42154;51.992;5.896;2023-05-19T06:41:11;12.90;99.90
56240;DHT22;42154;51.992;5.896;2023-05-19T06:43:37;13.00;99.90
56240;DHT22;42154;51.992;5.896;2023-05-19T06:46:03;13.10;99.90
56240;DHT22;42154;51.992;5.896;2023-05-19T06:48:31;13.20;99.90
56240;DHT22;42154;51.992;5.896;2023-05-19T06:50:57;13.30;99.90
56240;DHT22;42154;51.992;5.896;2023-05-19T06:53:24;13.40;99.90
56240;DHT22;42154;51.992;5.896;2023-05-19T06:55:51;13.40;99.90
56240;DHT22;42154;51.992;5.896;2023-05-19T06:58:19;13.60;99.90
56240;DHT22;42154;51.992;5.896;2023-05-19T07:00:45;13.60;99.90
56240;DHT22;42154;51.992;5.896;2023-05-19T07:03:14;13.70;99.90
56240;DHT22;42154;51.992;5.896;2023-05-19T07:05:40;13.70;99.90
56240;DHT22;42154;51.992;5.896;2023-05-19T07:08:06;13.80;99.90
56240;DHT22;42154;51.992;5.896;2023-05-19T07:10:34;14.00;99.90
56240;DHT22;42154;51.992;5.896;2023-05-19T07:13:01;14.10;99.90
56240;DHT22;42154;51.992;5.896;2023-05-19T07:15:30;14.20;99.90
56240;DHT22;42154;51.992;5.896;2023-05-19T07:17:57;14.30;99.90
56240;DHT22;42154;51.992;5.896;2023-05-19T07:20:24;14.50;99.90
56240;DHT22;42154;51.992;5.896;2023-05-19T07:22:49;14.50;99.90
56240;DHT22;42154;51.992;5.896;2023-05-19T07:25:15;14.60;99.90
56240;DHT22;42154;51.992;5.896;2023-05-19T07:27:45;14.60;99.90
56240;DHT22;42154;51.992;5.896;2023-05-19T07:30:11;14.60;99.90
56240;DHT22;42154;51.992;5.896;2023-05-19T07:32:37;14.70;99.90
56240;DHT22;42154;51.992;5.896;2023-05-19T07:35:04;14.70;99.90
56240;DHT22;42154;51.992;5.896;2023-05-19T07:37:30;14.70;99.90
56240;DHT22;42154;51.992;5.896;2023-05-19T07:39:55;14.70;99.90
56240;DHT22;42154;51.992;5.896;2023-05-19T07:42:21;14.70;99.90
56240;DHT22;42154;51.992;5.896;2023-05-19T07:44:47;14.70;99.90
56240;DHT22;42154;51.992;5.896;2023-05-19T07:47:13;14.80;99.90
56240;DHT22;42154;51.992;5.896;2023-05-19T07:49:38;14.80;99.90
56240;DHT22;42154;51.992;5.896;2023-05-19T07:52:04;14.90;99.90
56240;DHT22;42154;51.992;5.896;2023-05-19T07:54:30;15.00;99.90
56240;DHT22;42154;51.992;5.896;2023-05-19T07:56:56;15.00;99.90
56240;DHT22;42154;51.992;5.896;2023-05-19T07:59:22;15.20;99.90
56240;DHT22;42154;51.992;5.896;2023-05-19T08:01:48;15.30;99.90
56240;DHT22;42154;51.992;5.896;2023-05-19T08:04:14;15.40;99.50
56240;DHT22;42154;51.992;5.896;2023-05-19T08:06:40;15.50;99.40
56240;DHT22;42154;51.992;5.896;2023-05-19T08:09:08;15.70;99.10
56240;DHT22;42154;51.992;5.896;2023-05-19T08:11:34;15.80;99.30
56240;DHT22;42154;51.992;5.896;2023-05-19T08:14:01;16.00;98.80
56240;DHT22;42154;51.992;5.896;2023-05-19T08:16:26;16.10;98.60
56240;DHT22;42154;51.992;5.896;2023-05-19T08:18:52;16.20;98.10
56240;DHT22;42154;51.992;5.896;2023-05-19T08:21:19;16.20;97.70
56240;DHT22;42154;51.992;5.896;2023-05-19T08:23:46;16.40;97.90
56240;DHT22;42154;51.992;5.896;2023-05-19T08:26:11;16.40;97.20
56240;DHT22;42154;51.992;5.896;2023-05-19T08:28:37;16.50;97.50
56240;DHT22;42154;51.992;5.896;2023-05-19T08:31:03;16.70;97.20
56240;DHT22;42154;51.992;5.896;2023-05-19T08:33:28;16.80;96.50
56240;DHT22;42154;51.992;5.896;2023-05-19T08:35:57;16.80;96.20
56240;DHT22;42154;51.992;5.896;2023-05-19T08:38:24;16.90;96.20
56240;DHT22;42154;51.992;5.896;2023-05-19T08:40:51;16.90;96.20
56240;DHT22;42154;51.992;5.896;2023-05-19T08:43:17;17.00;95.60
56240;DHT22;42154;51.992;5.896;2023-05-19T08:45:44;17.10;95.50
56240;DHT22;42154;51.992;5.896;2023-05-19T08:48:13;17.10;94.90
56240;DHT22;42154;51.992;5.896;2023-05-19T08:50:50;17.00;94.50
56240;DHT22;42154;51.992;5.896;2023-05-19T08:53:26;17.00;93.90
56240;DHT22;42154;51.992;5.896;2023-05-19T08:56:14;17.10;94.10
56240;DHT22;42154;51.992;5.896;2023-05-19T08:58:41;17.20;93.20
56240;DHT22;42154;51.992;5.896;2023-05-19T09:01:14;17.20;93.50
56240;DHT22;42154;51.992;5.896;2023-05-19T09:03:42;17.30;93.00
56240;DHT22;42154;51.992;5.896;2023-05-19T09:06:09;17.20;92.40
56240;DHT22;42154;51.992;5.896;2023-05-19T09:08:37;17.20;91.60
56240;DHT22;42154;51.992;5.896;2023-05-19T09:11:02;17.20;91.50
56240;DHT22;42154;51.992;5.896;2023-05-19T09:13:31;17.30;91.40
56240;DHT22;42154;51.992;5.896;2023-05-19T09:15:57;17.30;90.70
56240;DHT22;42154;51.992;5.896;2023-05-19T09:18:26;17.40;91.50
56240;DHT22;42154;51.992;5.896;2023-05-19T09:20:56;17.60;91.40
56240;DHT22;42154;51.992;5.896;2023-05-19T09:23:30;17.70;90.80
56240;DHT22;42154;51.992;5.896;2023-05-19T09:26:03;17.80;90.70
56240;DHT22;42154;51.992;5.896;2023-05-19T09:28:33;17.90;90.60
56240;DHT22;42154;51.992;5.896;2023-05-19T09:31:06;18.00;90.30
56240;DHT22;42154;51.992;5.896;2023-05-19T09:33:37;18.10;89.80
56240;DHT22;42154;51.992;5.896;2023-05-19T09:36:03;18.10;88.00
56240;DHT22;42154;51.992;5.896;2023-05-19T09:38:31;18.20;89.50
56240;DHT22;42154;51.992;5.896;2023-05-19T09:40:58;18.30;89.10
56240;DHT22;42154;51.992;5.896;2023-05-19T09:43:28;18.30;87.20
56240;DHT22;42154;51.992;5.896;2023-05-19T09:46:08;18.30;85.50
56240;DHT22;42154;51.992;5.896;2023-05-19T09:48:36;18.20;81.90
56240;DHT22;42154;51.992;5.896;2023-05-19T09:51:03;18.00;82.30
56240;DHT22;42154;51.992;5.896;2023-05-19T09:53:30;18.00;84.80
56240;DHT22;42154;51.992;5.896;2023-05-19T09:55:57;18.00;84.50
56240;DHT22;42154;51.992;5.896;2023-05-19T09:58:24;18.00;82.60
56240;DHT22;42154;51.992;5.896;2023-05-19T10:00:50;18.00;83.30
56240;DHT22;42154;51.992;5.896;2023-05-19T10:03:22;18.00;82.90
56240;DHT22;42154;51.992;5.896;2023-05-19T10:05:49;18.10;84.20
56240;DHT22;42154;51.992;5.896;2023-05-19T10:08:16;18.30;85.10
56240;DHT22;42154;51.992;5.896;2023-05-19T10:10:44;18.40;83.10
56240;DHT22;42154;51.992;5.896;2023-05-19T10:13:11;18.40;84.00
56240;DHT22;42154;51.992;5.896;2023-05-19T10:15:39;18.40;83.00
56240;DHT22;42154;51.992;5.896;2023-05-19T10:18:06;18.40;83.10
56240;DHT22;42154;51.992;5.896;2023-05-19T10:20:33;18.40;82.30
56240;DHT22;42154;51.992;5.896;2023-05-19T10:22:59;18.40;81.50
56240;DHT22;42154;51.992;5.896;2023-05-19T10:25:27;18.40;81.80
56240;DHT22;42154;51.992;5.896;2023-05-19T10:28:08;18.40;82.80
56240;DHT22;42154;51.992;5.896;2023-05-19T10:30:38;18.50;82.70
56240;DHT22;42154;51.992;5.896;2023-05-19T10:33:09;18.50;81.90
56240;DHT22;42154;51.992;5.896;2023-05-19T10:35:39;18.60;83.00
56240;DHT22;42154;51.992;5.896;2023-05-19T10:41:06;18.80;79.80
56240;DHT22;42154;51.992;5.896;2023-05-19T10:46:28;18.80;78.40
56240;DHT22;42154;51.992;5.896;2023-05-19T10:48:54;18.80;78.70
56240;DHT22;42154;51.992;5.896;2023-05-19T10:51:27;18.80;79.70
56240;DHT22;42154;51.992;5.896;2023-05-19T10:53:52;18.90;77.90
56240;DHT22;42154;51.992;5.896;2023-05-19T10:56:29;18.90;78.60
56240;DHT22;42154;51.992;5.896;2023-05-19T10:58:55;18.90;78.80
56240;DHT22;42154;51.992;5.896;2023-05-19T11:01:21;18.80;77.90
56240;DHT22;42154;51.992;5.896;2023-05-19T11:03:50;18.80;78.90
56240;DHT22;42154;51.992;5.896;2023-05-19T11:06:26;18.70;77.30
56240;DHT22;42154;51.992;5.896;2023-05-19T11:11:25;18.80;78.60
56240;DHT22;42154;51.992;5.896;2023-05-19T11:13:53;19.00;78.20
56240;DHT22;42154;51.992;5.896;2023-05-19T11:16:31;19.10;77.60
56240;DHT22;42154;51.992;5.896;2023-05-19T11:19:00;19.10;77.00
56240;DHT22;42154;51.992;5.896;2023-05-19T11:21:41;19.10;77.60
56240;DHT22;42154;51.992;5.896;2023-05-19T11:24:08;19.20;77.80
56240;DHT22;42154;51.992;5.896;2023-05-19T11:26:40;19.30;78.60
56240;DHT22;42154;51.992;5.896;2023-05-19T11:29:07;19.50;77.50
56240;DHT22;42154;51.992;5.896;2023-05-19T11:31:34;19.60;76.60
56240;DHT22;42154;51.992;5.896;2023-05-19T11:34:01;19.60;76.10
56240;DHT22;42154;51.992;5.896;2023-05-19T11:36:27;19.60;75.00
56240;DHT22;42154;51.992;5.896;2023-05-19T11:38:53;19.50;74.60
56240;DHT22;42154;51.992;5.896;2023-05-19T11:41:19;19.40;74.90
56240;DHT22;42154;51.992;5.896;2023-05-19T11:43:46;19.40;74.90
56240;DHT22;42154;51.992;5.896;2023-05-19T11:46:12;19.60;74.90
56240;DHT22;42154;51.992;5.896;2023-05-19T11:48:38;19.60;74.40
56240;DHT22;42154;51.992;5.896;2023-05-19T11:51:07;19.60;74.70
56240;DHT22;42154;51.992;5.896;2023-05-19T11:53:33;19.60;75.50
56240;DHT22;42154;51.992;5.896;2023-05-19T11:56:03;19.70;76.30
56240;DHT22;42154;51.992;5.896;2023-05-19T11:58:29;19.70;75.60
56240;DHT22;42154;51.992;5.896;2023-05-19T12:00:55;19.80;74.90
56240;DHT22;42154;51.992;5.896;2023-05-19T12:03:21;19.80;75.20
56240;DHT22;42154;51.992;5.896;2023-05-19T12:05:51;19.90;75.20
56240;DHT22;42154;51.992;5.896;2023-05-19T12:08:18;19.90;75.10
56240;DHT22;42154;51.992;5.896;2023-05-19T12:10:47;20.00;76.00
56240;DHT22;42154;51.992;5.896;2023-05-19T12:13:14;20.20;74.60
56240;DHT22;42154;51.992;5.896;2023-05-19T12:15:40;20.30;73.70
56240;DHT22;42154;51.992;5.896;2023-05-19T12:18:05;20.20;71.80
56240;DHT22;42154;51.992;5.896;2023-05-19T12:20:31;20.10;72.90
56240;DHT22;42154;51.992;5.896;2023-05-19T12:23:00;20.20;72.00
56240;DHT22;42154;51.992;5.896;2023-05-19T12:25:27;20.30;72.60
56240;DHT22;42154;51.992;5.896;2023-05-19T12:28:00;20.50;72.10
56240;DHT22;42154;51.992;5.896;2023-05-19T12:30:29;20.60;71.00
56240;DHT22;42154;51.992;5.896;2023-05-19T12:32:56;20.80;72.00
56240;DHT22;42154;51.992;5.896;2023-05-19T12:35:26;21.00;71.60
56240;DHT22;42154;51.992;5.896;2023-05-19T12:37:53;21.20;69.30
56240;DHT22;42154;51.992;5.896;2023-05-19T12:40:19;21.00;69.70
56240;DHT22;42154;51.992;5.896;2023-05-19T12:42:45;21.00;70.30
56240;DHT22;42154;51.992;5.896;2023-05-19T12:45:12;20.90;70.70
56240;DHT22;42154;51.992;5.896;2023-05-19T12:47:38;20.70;71.00
56240;DHT22;42154;51.992;5.896;2023-05-19T12:50:08;20.50;72.10
56240;DHT22;42154;51.992;5.896;2023-05-19T12:52:41;20.50;72.20
56240;DHT22;42154;51.992;5.896;2023-05-19T12:55:08;20.60;72.50
56240;DHT22;42154;51.992;5.896;2023-05-19T12:57:40;20.80;71.30
56240;DHT22;42154;51.992;5.896;2023-05-19T13:00:14;20.70;71.70
56240;DHT22;42154;51.992;5.896;2023-05-19T13:03:04;20.60;71.40
56240;DHT22;42154;51.992;5.896;2023-05-19T13:05:36;20.30;70.30
56240;DHT22;42154;51.992;5.896;2023-05-19T13:08:12;20.30;72.30
56240;DHT22;42154;51.992;5.896;2023-05-19T13:10:40;20.40;71.10
56240;DHT22;42154;51.992;5.896;2023-05-19T13:13:07;20.60;71.50
56240;DHT22;42154;51.992;5.896;2023-05-19T13:15:35;21.00;70.90
56240;DHT22;42154;51.992;5.896;2023-05-19T13:18:04;21.20;71.40
56240;DHT22;42154;51.992;5.896;2023-05-19T13:20:31;21.30;70.80
56240;DHT22;42154;51.992;5.896;2023-05-19T13:22:57;21.20;71.80
56240;DHT22;42154;51.992;5.896;2023-05-19T13:25:25;20.90;71.40
56240;DHT22;42154;51.992;5.896;2023-05-19T13:27:51;20.80;70.40
56240;DHT22;42154;51.992;5.896;2023-05-19T13:30:18;20.70;69.80
56240;DHT22;42154;51.992;5.896;2023-05-19T13:32:44;20.70;70.50
56240;DHT22;42154;51.992;5.896;2023-05-19T13:35:12;20.80;71.50
56240;DHT22;42154;51.992;5.896;2023-05-19T13:37:38;21.00;71.20
56240;DHT22;42154;51.992;5.896;2023-05-19T13:40:07;21.20;71.20
56240;DHT22;42154;51.992;5.896;2023-05-19T13:42:33;21.20;69.90
56240;DHT22;42154;51.992;5.896;2023-05-19T13:45:00;21.10;69.40
56240;DHT22;42154;51.992;5.896;2023-05-19T13:47:26;21.20;68.60
56240;DHT22;42154;51.992;5.896;2023-05-19T13:49:52;21.40;69.10
56240;DHT22;42154;51.992;5.896;2023-05-19T13:52:20;21.70;69.40
56240;DHT22;42154;51.992;5.896;2023-05-19T13:54:46;21.80;67.30
56240;DHT22;42154;51.992;5.896;2023-05-19T13:57:16;21.80;67.50
56240;DHT22;42154;51.992;5.896;2023-05-19T13:59:42;21.50;66.90
56240;DHT22;42154;51.992;5.896;2023-05-19T14:02:08;21.10;67.70
56240;DHT22;42154;51.992;5.896;2023-05-19T14:04:38;20.70;68.90
56240;DHT22;42154;51.992;5.896;2023-05-19T14:07:04;20.70;70.10
56240;DHT22;42154;51.992;5.896;2023-05-19T14:09:30;20.80;68.70
56240;DHT22;42154;51.992;5.896;2023-05-19T14:11:56;20.90;69.20
56240;DHT22;42154;51.992;5.896;2023-05-19T14:14:22;21.10;68.40
56240;DHT22;42154;51.992;5.896;2023-05-19T14:16:48;21.30;67.70
56240;DHT22;42154;51.992;5.896;2023-05-19T14:19:14;21.40;66.90
56240;DHT22;42154;51.992;5.896;2023-05-19T14:21:40;21.60;67.10
56240;DHT22;42154;51.992;5.896;2023-05-19T14:24:05;21.50;67.10
56240;DHT22;42154;51.992;5.896;2023-05-19T14:26:31;21.40;67.80
56240;DHT22;42154;51.992;5.896;2023-05-19T14:28:57;21.20;68.20
56240;DHT22;42154;51.992;5.896;2023-05-19T14:31:23;21.00;68.40
56240;DHT22;42154;51.992;5.896;2023-05-19T14:33:48;20.90;67.40
56240;DHT22;42154;51.992;5.896;2023-05-19T14:36:14;20.90;67.80
56240;DHT22;42154;51.992;5.896;2023-05-19T14:38:40;20.90;67.90
56240;DHT22;42154;51.992;5.896;2023-05-19T14:41:06;20.90;67.80
56240;DHT22;42154;51.992;5.896;2023-05-19T14:43:31;21.00;68.60
56240;DHT22;42154;51.992;5.896;2023-05-19T14:45:57;21.10;68.90
56240;DHT22;42154;51.992;5.896;2023-05-19T14:48:23;21.40;68.20
56240;DHT22;42154;51.992;5.896;2023-05-19T14:50:49;21.50;66.70
56240;DHT22;42154;51.992;5.896;2023-05-19T14:53:15;21.60;66.60
56240;DHT22;42154;51.992;5.896;2023-05-19T14:55:41;21.60;66.40
56240;DHT22;42154;51.992;5.896;2023-05-19T14:58:07;21.70;67.10
56240;DHT22;42154;51.992;5.896;2023-05-19T15:00:33;21.80;66.60
56240;DHT22;42154;51.992;5.896;2023-05-19T15:03:00;21.80;65.80
56240;DHT22;42154;51.992;5.896;2023-05-19T15:05:25;21.70;65.50
56240;DHT22;42154;51.992;5.896;2023-05-19T15:07:51;21.50;66.20
56240;DHT22;42154;51.992;5.896;2023-05-19T15:10:17;21.40;66.30
56240;DHT22;42154;51.992;5.896;2023-05-19T15:12:47;21.30;65.60
56240;DHT22;42154;51.992;5.896;2023-05-19T15:15:13;21.40;65.90
56240;DHT22;42154;51.992;5.896;2023-05-19T15:17:41;21.60;65.90
56240;DHT22;42154;51.992;5.896;2023-05-19T15:20:07;21.70;64.10
56240;DHT22;42154;51.992;5.896;2023-05-19T15:22:33;21.80;65.70
56240;DHT22;42154;51.992;5.896;2023-05-19T15:24:58;21.90;65.60
56240;DHT22;42154;51.992;5.896;2023-05-19T15:27:25;21.80;65.30
56240;DHT22;42154;51.992;5.896;2023-05-19T15:29:51;21.70;64.90
56240;DHT22;42154;51.992;5.896;2023-05-19T15:32:17;21.40;65.50
56240;DHT22;42154;51.992;5.896;2023-05-19T15:34:43;21.20;65.90
56240;DHT22;42154;51.992;5.896;2023-05-19T15:37:09;21.20;65.50
56240;DHT22;42154;51.992;5.896;2023-05-19T15:39:35;21.30;66.00
56240;DHT22;42154;51.992;5.896;2023-05-19T15:42:00;21.60;65.30
56240;DHT22;42154;51.992;5.896;2023-05-19T15:44:26;21.60;65.40
56240;DHT22;42154;51.992;5.896;2023-05-19T15:46:52;21.70;64.60
56240;DHT22;42154;51.992;5.896;2023-05-19T15:49:17;21.60;64.50
56240;DHT22;42154;51.992;5.896;2023-05-19T15:51:43;21.50;64.20
56240;DHT22;42154;51.992;5.896;2023-05-19T15:54:10;21.30;64.20
56240;DHT22;42154;51.992;5.896;2023-05-19T15:56:35;21.30;65.20